Time;durP1;ratioP1;P1;durP2;ratioP2;P2;SDS_P1;SDS_P2;PMS_P1;PMS_P2;Temp;Humidity;BMP_temperature;BMP_pressure;BME280_temperature;BME280_humidity;BME280_pressure;Samples;Min_cycle;Max_cycle;Signal;HPM_P1;HPM_P2
2022/05/07 00:00:39;;;;;;;2.58;1.83;;;;;;;-140.79;100.00;63287.88;5065811;28;20017;-48
2022/05/07 00:03:04;;;;;;;2.70;1.70;;;;;;;-140.79;100.00;63287.88;5065567;28;20039;-48
2022/05/07 00:05:31;;;;;;;2.55;2.10;;;;;;;-140.79;100.00;63287.88;5065458;28;20027;-48
2022/05/07 00:07:57;;;;;;;2.70;1.80;;;;;;;-140.79;100.00;63287.88;5065814;28;20032;-48
2022/05/07 00:10:22;;;;;;;3.03;1.85;;;;;;;-140.79;100.00;63287.88;5065692;28;20070;-47
2022/05/07 00:12:47;;;;;;;2.55;1.75;;;;;;;-140.79;100.00;63287.88;5065768;28;20025;-48
2022/05/07 00:15:13;;;;;;;2.25;1.83;;;;;;;-140.79;100.00;63287.88;5065403;28;20625;-48
2022/05/07 00:20:22;;;;;;;2.45;1.85;;;;;;;-140.79;100.00;63287.88;5065604;28;20039;-46
2022/05/07 00:22:47;;;;;;;2.78;1.80;;;;;;;-140.79;100.00;63287.88;5065215;28;20037;-48
2022/05/07 00:25:13;;;;;;;2.60;1.92;;;;;;;-140.79;100.00;63287.88;5064919;28;20242;-48
2022/05/07 00:27:38;;;;;;;2.45;1.83;;;;;;;-140.79;100.00;63287.88;5065465;28;20440;-48
2022/05/07 00:30:05;;;;;;;2.42;1.77;;;;;;;-140.79;100.00;63287.88;5047513;28;20082;-48
2022/05/07 00:32:30;;;;;;;2.58;2.00;;;;;;;-140.79;100.00;63287.88;5046992;28;20028;-47
2022/05/07 00:34:56;;;;;;;2.28;1.90;;;;;;;-140.79;100.00;63287.88;5064781;28;20028;-47
2022/05/07 00:37:23;;;;;;;3.95;2.20;;;;;;;-140.79;100.00;63287.88;5065581;28;20089;-48
2022/05/07 00:39:49;;;;;;;2.50;2.10;;;;;;;-140.79;100.00;63287.88;5063210;28;20041;-47
2022/05/07 00:42:15;;;;;;;2.22;1.60;;;;;;;-140.79;100.00;63287.88;5065206;28;20070;-47
2022/05/07 00:44:40;;;;;;;2.35;1.80;;;;;;;-140.79;100.00;63287.88;5064895;28;20037;-48
2022/05/07 00:47:16;;;;;;;2.42;1.65;;;;;;;-140.79;100.00;63287.88;5063885;28;20356;-48
2022/05/07 00:49:46;;;;;;;2.35;1.60;;;;;;;-140.79;100.00;63287.88;5065168;28;20115;-48
2022/05/07 00:52:13;;;;;;;2.28;1.80;;;;;;;-140.79;100.00;63287.88;5064765;28;20025;-48
2022/05/07 00:54:38;;;;;;;2.88;1.80;;;;;;;-140.79;100.00;63287.88;5064408;28;20028;-47
2022/05/07 00:57:04;;;;;;;2.80;1.58;;;;;;;-140.79;100.00;63287.88;5047144;28;20582;-48
2022/05/07 00:59:29;;;;;;;2.70;1.67;;;;;;;-140.79;100.00;63287.88;5064628;28;20086;-50
2022/05/07 01:01:55;;;;;;;3.28;2.15;;;;;;;-140.79;100.00;63287.88;5064635;28;20029;-47
2022/05/07 01:04:20;;;;;;;2.40;1.83;;;;;;;-140.79;100.00;63287.88;5064764;28;20490;-47
2022/05/07 01:06:45;;;;;;;3.15;1.67;;;;;;;-140.79;100.00;63287.88;5064451;28;20028;-49
2022/05/07 01:09:11;;;;;;;2.13;1.50;;;;;;;-140.79;100.00;63287.88;5063002;28;20059;-47
2022/05/07 01:11:36;;;;;;;2.65;1.80;;;;;;;-140.79;100.00;63287.88;5064806;28;20423;-48
2022/05/07 01:14:02;;;;;;;2.72;1.90;;;;;;;-140.79;100.00;63287.88;5046336;28;20032;-48
2022/05/07 01:16:28;;;;;;;2.47;1.85;;;;;;;-140.79;100.00;63287.88;5064000;28;20439;-48
2022/05/07 01:18:53;;;;;;;2.85;1.88;;;;;;;-140.79;100.00;63287.88;5064970;28;20028;-48
2022/05/07 01:21:18;;;;;;;2.15;1.70;;;;;;;-140.79;100.00;63287.88;5064951;28;20767;-48
2022/05/07 01:23:45;;;;;;;2.92;1.80;;;;;;;-140.79;100.00;63287.88;5064163;28;20419;-46
2022/05/07 01:26:10;;;;;;;1.90;1.55;;;;;;;-140.79;100.00;63287.88;5064630;28;20048;-48
2022/05/07 01:28:36;;;;;;;2.17;1.67;;;;;;;-140.79;100.00;63287.88;5030858;28;20035;-48
2022/05/07 01:31:01;;;;;;;2.60;2.00;;;;;;;-140.79;100.00;63287.88;5064840;28;20052;-48
2022/05/07 01:33:27;;;;;;;3.03;1.63;;;;;;;-140.79;100.00;63287.88;5045706;28;20036;-48
2022/05/07 01:35:52;;;;;;;1.90;1.50;;;;;;;-140.79;100.00;63287.88;5064355;28;20388;-47
2022/05/07 01:38:18;;;;;;;1.95;1.67;;;;;;;-140.79;100.00;63287.88;5064729;28;20069;-47
2022/05/07 01:40:43;;;;;;;3.28;1.67;;;;;;;-140.79;100.00;63287.88;5063580;28;20036;-47
2022/05/07 01:43:08;;;;;;;3.30;2.10;;;;;;;-140.79;100.00;63287.88;5064400;28;20028;-48
2022/05/07 01:45:34;;;;;;;2.22;1.85;;;;;;;-140.79;100.00;63287.88;5064146;28;20070;-46
2022/05/07 01:48:11;;;;;;;2.00;1.63;;;;;;;-140.79;100.00;63287.88;5063980;28;20119;-48
2022/05/07 01:50:38;;;;;;;2.10;1.70;;;;;;;-140.79;100.00;63287.88;5064303;28;20021;-47
2022/05/07 01:53:04;;;;;;;2.55;1.60;;;;;;;-140.79;100.00;63287.88;5064170;28;20108;-48
2022/05/07 01:55:31;;;;;;;3.28;1.70;;;;;;;-140.79;100.00;63287.88;5063844;28;20107;-49
2022/05/07 01:57:58;;;;;;;2.95;1.67;;;;;;;-140.79;100.00;63287.88;5063999;28;20082;-48
2022/05/07 02:00:23;;;;;;;2.13;1.55;;;;;;;-140.79;100.00;63287.88;5064350;28;20466;-47
2022/05/07 02:02:48;;;;;;;2.72;1.92;;;;;;;-140.79;100.00;63287.88;5063766;28;20036;-48
2022/05/07 02:05:14;;;;;;;2.20;1.52;;;;;;;-140.79;100.00;63287.88;5063669;28;20036;-47
2022/05/07 02:07:39;;;;;;;2.30;1.70;;;;;;;-140.79;100.00;63287.88;5064417;28;20108;-47
2022/05/07 02:10:05;;;;;;;2.78;1.80;;;;;;;-140.79;100.00;63287.88;5064117;28;20400;-48
2022/05/07 02:12:30;;;;;;;2.83;1.60;;;;;;;-140.79;100.00;63287.88;5063625;28;20033;-47
2022/05/07 02:14:56;;;;;;;3.38;1.48;;;;;;;-140.79;100.00;63287.88;5064425;28;20028;-46
2022/05/07 02:17:21;;;;;;;1.90;1.60;;;;;;;-140.79;100.00;63287.88;5063949;28;20032;-47
2022/05/07 02:19:47;;;;;;;2.53;1.60;;;;;;;-140.79;100.00;63287.88;5064588;28;20522;-49
2022/05/07 02:22:12;;;;;;;3.40;1.73;;;;;;;-140.79;100.00;63287.88;5064273;28;20330;-46
2022/05/07 02:24:37;;;;;;;2.30;1.70;;;;;;;-140.79;100.00;63287.88;5063659;28;20024;-48
2022/05/07 02:27:03;;;;;;;2.63;1.63;;;;;;;-140.79;100.00;63287.88;5062804;28;20056;-48
2022/05/07 02:29:29;;;;;;;2.00;1.60;;;;;;;-140.79;100.00;63287.88;5063196;28;20102;-47
2022/05/07 02:32:03;;;;;;;2.55;1.58;;;;;;;-140.79;100.00;63287.88;5063694;28;20032;-48
2022/05/07 02:34:32;;;;;;;2.58;1.77;;;;;;;-140.79;100.00;63287.88;5063127;28;20028;-48
2022/05/07 02:36:58;;;;;;;2.85;1.55;;;;;;;-140.79;100.00;63287.88;5063243;28;20029;-47
2022/05/07 02:39:23;;;;;;;3.72;1.65;;;;;;;-140.79;100.00;63287.88;5061317;28;20024;-48
2022/05/07 02:44:33;;;;;;;3.58;1.85;;;;;;;-140.79;100.00;63287.88;5063893;28;20035;-48
2022/05/07 02:46:58;;;;;;;2.38;1.88;;;;;;;-140.79;100.00;63287.88;5062977;28;20025;-48
2022/05/07 02:49:23;;;;;;;2.63;1.67;;;;;;;-140.79;100.00;63287.88;5063982;28;20090;-47
2022/05/07 02:51:49;;;;;;;2.40;1.70;;;;;;;-140.79;100.00;63287.88;5064498;28;20091;-48
2022/05/07 02:54:14;;;;;;;2.20;1.70;;;;;;;-140.79;100.00;63287.88;5046560;28;20032;-48
2022/05/07 02:56:40;;;;;;;2.50;1.70;;;;;;;-140.79;100.00;63287.88;5063408;28;20021;-47
2022/05/07 02:59:05;;;;;;;2.47;1.63;;;;;;;-140.79;100.00;63287.88;5064218;28;20093;-47
2022/05/07 03:01:31;;;;;;;1.70;1.45;;;;;;;-140.79;100.00;63287.88;5063493;28;20384;-48
2022/05/07 03:03:56;;;;;;;2.22;1.63;;;;;;;-140.79;100.00;63287.88;5045790;28;20032;-48
2022/05/07 03:06:21;;;;;;;1.92;1.50;;;;;;;-140.79;100.00;63287.88;5063712;28;20025;-48
2022/05/07 03:08:47;;;;;;;2.10;1.60;;;;;;;-140.79;100.00;63287.88;5063230;28;20025;-47
2022/05/07 03:11:13;;;;;;;2.72;1.50;;;;;;;-140.79;100.00;63287.88;5063719;28;20024;-47
2022/05/07 03:13:39;;;;;;;2.90;1.70;;;;;;;-140.79;100.00;63287.88;5063608;28;20097;-48
2022/05/07 03:16:06;;;;;;;2.22;1.63;;;;;;;-140.79;100.00;63287.88;5046408;28;20040;-47
2022/05/07 03:18:31;;;;;;;2.30;1.70;;;;;;;-140.79;100.00;63287.88;5069794;28;20040;-49
2022/05/07 03:20:58;;;;;;;2.85;1.77;;;;;;;-140.79;100.00;63287.88;5051618;28;20024;-48
2022/05/07 03:23:25;;;;;;;1.90;1.42;;;;;;;-140.79;100.00;63287.88;5070915;28;20044;-49
2022/05/07 03:25:51;;;;;;;2.28;1.52;;;;;;;-140.79;100.00;63287.88;5066418;28;20483;-48
2022/05/07 03:28:16;;;;;;;2.95;1.80;;;;;;;-140.79;100.00;63287.88;5066498;28;20090;-48
2022/05/07 03:30:41;;;;;;;2.47;1.52;;;;;;;-140.79;100.00;63287.88;5045029;28;20009;-47
2022/05/07 03:33:07;;;;;;;2.40;1.48;;;;;;;-140.79;100.00;63287.88;5046286;28;20028;-47
2022/05/07 03:35:33;;;;;;;2.28;1.65;;;;;;;-140.79;100.00;63287.88;5046289;28;20036;-49
2022/05/07 03:37:58;;;;;;;2.25;1.50;;;;;;;-140.79;100.00;63287.88;5050114;28;20024;-47
2022/05/07 03:40:23;;;;;;;2.05;1.67;;;;;;;-140.79;100.00;63287.88;5062926;28;20048;-49
2022/05/07 03:42:49;;;;;;;2.15;1.50;;;;;;;-140.79;100.00;63287.88;5064387;28;20017;-50
2022/05/07 03:45:14;;;;;;;2.42;1.50;;;;;;;-140.79;100.00;63287.88;5064576;28;20036;-48
2022/05/07 03:47:40;;;;;;;3.10;1.58;;;;;;;-140.79;100.00;63287.88;5063793;28;20028;-48
2022/05/07 03:50:06;;;;;;;2.40;1.60;;;;;;;-140.79;100.00;63287.88;5064715;28;20017;-48
2022/05/07 03:55:16;;;;;;;2.25;1.60;;;;;;;-140.79;100.00;63287.88;5064737;28;20510;-47
2022/05/07 03:57:41;;;;;;;3.83;1.45;;;;;;;-140.79;100.00;63287.88;5064836;28;20029;-48
2022/05/07 04:00:07;;;;;;;1.98;1.50;;;;;;;-140.79;100.00;63287.88;5064868;28;20799;-47
2022/05/07 04:02:35;;;;;;;2.10;1.30;;;;;;;-140.79;100.00;63287.88;5064228;28;20029;-48
2022/05/07 04:05:04;;;;;;;2.08;1.60;;;;;;;-140.79;100.00;63287.88;5064912;28;20020;-47
2022/05/07 04:07:29;;;;;;;2.05;1.55;;;;;;;-140.79;100.00;63287.88;5064722;28;20020;-47
2022/05/07 04:09:55;;;;;;;2.03;1.50;;;;;;;-140.79;100.00;63287.88;5063909;28;20090;-47
2022/05/07 04:12:21;;;;;;;2.25;1.50;;;;;;;-140.79;100.00;63287.88;5063820;28;20028;-47
2022/05/07 04:14:47;;;;;;;2.30;1.60;;;;;;;-140.79;100.00;63287.88;5063504;28;20021;-47
2022/05/07 04:17:12;;;;;;;2.92;1.77;;;;;;;-140.79;100.00;63287.88;5063376;28;20070;-47
2022/05/07 04:19:38;;;;;;;1.55;1.30;;;;;;;-140.79;100.00;63287.88;5063851;28;20020;-47
2022/05/07 04:22:03;;;;;;;2.58;1.70;;;;;;;-140.79;100.00;63287.88;5063689;28;20021;-48
2022/05/07 04:24:29;;;;;;;1.85;1.55;;;;;;;-140.79;100.00;63287.88;5063287;28;20043;-47
2022/05/07 04:26:55;;;;;;;1.55;1.10;;;;;;;-140.79;100.00;63287.88;5058574;28;20132;-48
2022/05/07 04:29:20;;;;;;;2.47;1.48;;;;;;;-140.79;100.00;63287.88;5061472;28;20112;-47
2022/05/07 04:31:46;;;;;;;2.45;1.50;;;;;;;-140.79;100.00;63287.88;5062060;28;20025;-48
2022/05/07 04:34:11;;;;;;;2.50;1.52;;;;;;;-140.79;100.00;63287.88;5056171;28;20037;-48
2022/05/07 04:36:37;;;;;;;1.80;1.50;;;;;;;-140.79;100.00;63287.88;5062861;28;20026;-47
2022/05/07 04:39:02;;;;;;;2.05;1.60;;;;;;;-140.79;100.00;63287.88;5057613;28;20029;-48
2022/05/07 04:41:28;;;;;;;2.13;1.42;;;;;;;-140.79;100.00;63287.88;5059382;28;20070;-48
2022/05/07 04:43:53;;;;;;;2.25;1.80;;;;;;;-140.79;100.00;63287.88;5058105;28;20059;-47
2022/05/07 04:46:19;;;;;;;2.65;1.40;;;;;;;-140.79;100.00;63287.88;5062223;28;20016;-48
2022/05/07 04:48:46;;;;;;;1.92;1.55;;;;;;;-140.79;100.00;63287.88;5063183;28;20020;-47
2022/05/07 04:51:11;;;;;;;1.67;1.38;;;;;;;-140.79;100.00;63287.88;5058579;28;20067;-48
2022/05/07 04:53:37;;;;;;;1.98;1.60;;;;;;;-140.79;100.00;63287.88;5055790;28;20503;-48
2022/05/07 04:56:03;;;;;;;2.13;1.60;;;;;;;-140.79;100.00;63287.88;5056530;28;20029;-48
2022/05/07 04:58:28;;;;;;;2.35;1.60;;;;;;;-140.79;100.00;63287.88;5062898;28;20024;-47
2022/05/07 05:00:53;;;;;;;2.10;1.48;;;;;;;-140.79;100.00;63287.88;5063510;28;20543;-48
2022/05/07 05:03:19;;;;;;;2.47;1.70;;;;;;;-140.79;100.00;63287.88;5063829;28;20032;-48
2022/05/07 05:05:44;;;;;;;2.85;1.55;;;;;;;-140.79;100.00;63287.88;5064258;28;20028;-48
2022/05/07 05:08:10;;;;;;;2.38;1.48;;;;;;;-140.79;100.00;63287.88;5045880;28;20070;-48
2022/05/07 05:10:35;;;;;;;2.15;1.55;;;;;;;-140.79;100.00;63287.88;5062395;28;20036;-48
2022/05/07 05:13:01;;;;;;;1.90;1.25;;;;;;;-140.79;100.00;63287.88;5060721;28;20028;-46
2022/05/07 05:15:26;;;;;;;2.15;1.58;;;;;;;-140.79;100.00;63287.88;5063725;28;20043;-48
2022/05/07 05:17:52;;;;;;;2.30;1.60;;;;;;;-140.79;100.00;63287.88;5063365;28;20012;-49
2022/05/07 05:20:18;;;;;;;3.63;1.85;;;;;;;-140.79;100.00;63287.88;5063182;28;20021;-47
2022/05/07 05:22:50;;;;;;;2.58;1.48;;;;;;;-140.79;100.00;63287.88;5063140;28;20029;-50
2022/05/07 05:25:16;;;;;;;2.78;1.52;;;;;;;-140.79;100.00;63287.88;5063141;28;20066;-49
2022/05/07 05:27:42;;;;;;;1.70;1.45;;;;;;;-140.79;100.00;63287.88;5063338;28;20129;-48
2022/05/07 05:30:08;;;;;;;2.42;1.42;;;;;;;-140.79;100.00;63287.88;5061904;28;20108;-48
2022/05/07 05:32:33;;;;;;;2.40;1.55;;;;;;;-140.79;100.00;63287.88;5062782;28;20017;-48
2022/05/07 05:34:59;;;;;;;1.67;1.30;;;;;;;-140.79;100.00;63287.88;5063464;28;20575;-48
2022/05/07 05:37:24;;;;;;;1.70;1.40;;;;;;;-140.79;100.00;63287.88;5062979;28;20103;-47
2022/05/07 05:39:49;;;;;;;1.83;1.50;;;;;;;-140.79;100.00;63287.88;5060636;28;20029;-50
2022/05/07 05:42:15;;;;;;;2.63;1.48;;;;;;;-140.79;100.00;63287.88;5061786;28;20538;-49
2022/05/07 05:44:41;;;;;;;2.30;1.90;;;;;;;-140.79;100.00;63287.88;5061872;28;20039;-48
2022/05/07 05:47:06;;;;;;;2.67;1.70;;;;;;;-140.79;100.00;63287.88;5061449;28;20108;-48
2022/05/07 05:49:33;;;;;;;2.50;1.65;;;;;;;-140.79;100.00;63287.88;5061632;28;20037;-46
2022/05/07 05:52:00;;;;;;;3.08;1.33;;;;;;;-140.79;100.00;63287.88;5060388;28;20389;-47
2022/05/07 05:54:26;;;;;;;2.00;1.35;;;;;;;-140.79;100.00;63287.88;5061208;28;20139;-49
2022/05/07 05:56:51;;;;;;;2.10;1.50;;;;;;;-140.79;100.00;63287.88;5059809;28;20635;-46
2022/05/07 05:59:17;;;;;;;2.30;1.50;;;;;;;-140.79;100.00;63287.88;5063053;28;20280;-47
2022/05/07 06:01:42;;;;;;;2.30;1.50;;;;;;;-140.79;100.00;63287.88;5061600;28;20539;-47
2022/05/07 06:04:08;;;;;;;4.05;1.67;;;;;;;-140.79;100.00;63287.88;5061985;28;20025;-47
2022/05/07 06:06:33;;;;;;;2.13;1.85;;;;;;;-140.79;100.00;63287.88;5062274;28;20009;-48
2022/05/07 06:08:58;;;;;;;2.72;1.98;;;;;;;-140.79;100.00;63287.88;5063077;28;20423;-48
2022/05/07 06:11:24;;;;;;;2.45;1.60;;;;;;;-140.79;100.00;63287.88;5062310;28;20016;-48
2022/05/07 06:13:50;;;;;;;3.38;2.33;;;;;;;-140.79;100.00;63287.88;5044065;28;20032;-49
2022/05/07 06:16:17;;;;;;;3.03;1.90;;;;;;;-140.79;100.00;63287.88;5061783;28;20025;-47
2022/05/07 06:18:42;;;;;;;2.67;1.70;;;;;;;-140.79;100.00;63287.88;5061553;28;20021;-50
2022/05/07 06:21:08;;;;;;;2.47;1.65;;;;;;;-140.79;100.00;63287.88;5061445;28;20389;-47
2022/05/07 06:23:33;;;;;;;2.08;1.50;;;;;;;-140.79;100.00;63287.88;5034125;28;20499;-47
2022/05/07 06:28:43;;;;;;;2.33;1.70;;;;;;;-140.79;100.00;63287.88;5060228;28;20095;-48
2022/05/07 06:31:10;;;;;;;2.30;1.50;;;;;;;-140.79;100.00;63287.88;5042304;28;20029;-46
2022/05/07 06:33:38;;;;;;;2.45;1.70;;;;;;;-140.79;100.00;63287.88;5061702;28;20013;-46
2022/05/07 06:36:06;;;;;;;2.22;1.65;;;;;;;-140.79;100.00;63287.88;5062679;28;20024;-47
2022/05/07 06:38:31;;;;;;;1.60;1.20;;;;;;;-140.79;100.00;63287.88;5061842;28;20024;-47
2022/05/07 06:41:01;;;;;;;2.00;1.42;;;;;;;-140.79;100.00;63287.88;5062285;28;20032;-48
2022/05/07 06:43:28;;;;;;;3.03;1.52;;;;;;;-140.79;100.00;63287.88;5060367;28;20078;-50
2022/05/07 06:45:53;;;;;;;2.50;1.33;;;;;;;-140.79;100.00;63287.88;5062573;28;20415;-49
2022/05/07 06:48:18;;;;;;;1.77;1.27;;;;;;;-140.79;100.00;63287.88;5062748;28;20035;-51
2022/05/07 06:50:44;;;;;;;4.05;1.75;;;;;;;-140.79;100.00;63287.88;5064670;28;20524;-49
2022/05/07 06:53:09;;;;;;;3.85;1.50;;;;;;;-140.79;100.00;63287.88;5066872;28;20051;-50
2022/05/07 06:55:54;;;;;;;2.42;1.42;;;;;;;-140.79;100.00;63287.88;5066009;28;20025;-51
2022/05/07 06:58:24;;;;;;;2.22;1.50;;;;;;;-140.79;100.00;63287.88;5067236;28;20123;-50
2022/05/07 07:00:50;;;;;;;2.35;1.48;;;;;;;-140.79;100.00;63287.88;5066852;28;20647;-49
2022/05/07 07:03:15;;;;;;;3.10;1.65;;;;;;;-140.79;100.00;63287.88;5066366;28;20021;-50
2022/05/07 07:05:41;;;;;;;3.03;1.58;;;;;;;-140.79;100.00;63287.88;5065872;28;20051;-50
2022/05/07 07:08:06;;;;;;;2.50;1.30;;;;;;;-140.79;100.00;63287.88;5065610;28;20411;-50
2022/05/07 07:10:32;;;;;;;2.88;1.40;;;;;;;-140.79;100.00;63287.88;5064523;28;20085;-50
2022/05/07 07:12:57;;;;;;;2.58;1.55;;;;;;;-140.79;100.00;63287.88;5066506;28;20019;-49
2022/05/07 07:15:23;;;;;;;3.20;1.52;;;;;;;-140.79;100.00;63287.88;5066816;28;20039;-50
2022/05/07 07:17:49;;;;;;;3.13;1.73;;;;;;;-140.79;100.00;63287.88;5065993;28;20021;-50
2022/05/07 07:20:15;;;;;;;2.00;1.40;;;;;;;-140.79;100.00;63287.88;5063448;28;20478;-50
2022/05/07 07:22:41;;;;;;;2.13;1.45;;;;;;;-140.79;100.00;63287.88;5064732;28;20134;-50
2022/05/07 07:25:07;;;;;;;3.20;1.70;;;;;;;-140.79;100.00;63287.88;5065842;28;20032;-50
2022/05/07 07:27:34;;;;;;;3.40;1.67;;;;;;;-140.79;100.00;63287.88;5066006;28;20063;-49
2022/05/07 07:30:02;;;;;;;3.65;1.70;;;;;;;-140.79;100.00;63287.88;5044190;28;20021;-50
2022/05/07 07:32:28;;;;;;;2.60;1.42;;;;;;;-140.79;100.00;63287.88;5060069;28;20107;-49
2022/05/07 07:34:54;;;;;;;5.03;2.05;;;;;;;-140.79;100.00;63287.88;5061105;28;20040;-49
2022/05/07 07:37:20;;;;;;;5.45;2.38;;;;;;;-140.79;100.00;63287.88;5061751;28;20090;-50
2022/05/07 07:39:45;;;;;;;4.13;2.47;;;;;;;-140.79;100.00;63287.88;5043528;28;20052;-49
2022/05/07 07:42:11;;;;;;;6.43;2.50;;;;;;;-140.79;100.00;63287.88;5044733;28;20040;-51
2022/05/07 07:44:36;;;;;;;4.53;2.40;;;;;;;-140.79;100.00;63287.88;5063223;28;20868;-50
2022/05/07 07:49:46;;;;;;;4.00;2.45;;;;;;;-140.79;100.00;63287.88;5062992;28;20113;-50
2022/05/07 07:52:12;;;;;;;5.32;2.33;;;;;;;-140.79;100.00;63287.88;5063567;28;20024;-48
2022/05/07 07:54:38;;;;;;;4.55;2.15;;;;;;;-140.79;100.00;63287.88;5064105;28;20039;-50
2022/05/07 07:57:04;;;;;;;4.53;2.33;;;;;;;-140.79;100.00;63287.88;5065659;28;20029;-50
2022/05/07 07:59:30;;;;;;;4.18;2.60;;;;;;;-140.79;100.00;63287.88;5066600;28;20037;-49
2022/05/07 08:01:56;;;;;;;4.45;2.42;;;;;;;-140.79;100.00;63287.88;5045916;28;20553;-51
2022/05/07 08:04:22;;;;;;;4.38;2.30;;;;;;;-140.79;100.00;63287.88;5065486;28;20032;-49
2022/05/07 08:11:40;;;;;;;2.97;2.13;;;;;;;-140.79;100.00;63287.88;5065848;28;20020;-50
2022/05/07 08:12:17;;;;;;;4.22;2.47;;;;;;;-140.79;100.00;63287.88;5065792;28;20469;-50
2022/05/07 08:14:43;;;;;;;4.40;2.10;;;;;;;-140.79;100.00;63287.88;5065826;28;20040;-50
2022/05/07 08:17:08;;;;;;;4.25;2.20;;;;;;;-140.79;100.00;63287.88;5065372;28;20029;-48
2022/05/07 08:19:34;;;;;;;3.97;2.17;;;;;;;-140.79;100.00;63287.88;5064347;28;20403;-51
2022/05/07 08:22:00;;;;;;;3.70;2.05;;;;;;;-140.79;100.00;63287.88;5065407;28;20488;-51
2022/05/07 08:24:25;;;;;;;3.67;2.33;;;;;;;-140.79;100.00;63287.88;5064855;28;20034;-51
2022/05/07 08:26:51;;;;;;;3.55;2.10;;;;;;;-140.79;100.00;63287.88;5066006;28;20049;-51
2022/05/07 08:29:16;;;;;;;3.67;2.10;;;;;;;-140.79;100.00;63287.88;5066016;28;20032;-49
2022/05/07 08:31:42;;;;;;;4.80;2.20;;;;;;;-140.79;100.00;63287.88;5065481;28;20036;-50
2022/05/07 08:34:07;;;;;;;4.82;2.33;;;;;;;-140.79;100.00;63287.88;5064927;28;20499;-50
2022/05/07 08:36:32;;;;;;;3.83;2.15;;;;;;;-140.79;100.00;63287.88;5064642;28;20032;-50
2022/05/07 08:38:58;;;;;;;3.47;2.60;;;;;;;-140.79;100.00;63287.88;5064032;28;20082;-51
2022/05/07 08:41:23;;;;;;;2.72;1.80;;;;;;;-140.79;100.00;63287.88;5064112;28;20029;-50
2022/05/07 08:43:50;;;;;;;4.68;2.40;;;;;;;-140.79;100.00;63287.88;5064922;28;20083;-49
2022/05/07 08:46:18;;;;;;;3.53;2.20;;;;;;;-140.79;100.00;63287.88;5065110;28;20017;-50
2022/05/07 08:48:47;;;;;;;3.90;1.88;;;;;;;-140.79;100.00;63287.88;5065251;28;20040;-49
2022/05/07 08:51:14;;;;;;;4.03;1.90;;;;;;;-140.79;100.00;63287.88;5065167;28;20016;-50
2022/05/07 08:53:40;;;;;;;3.15;2.00;;;;;;;-140.79;100.00;63287.88;5064342;28;20043;-51
2022/05/07 08:56:05;;;;;;;4.07;2.40;;;;;;;-140.79;100.00;63287.88;5064793;28;20036;-50
2022/05/07 08:58:31;;;;;;;4.88;2.35;;;;;;;-140.79;100.00;63287.88;5065203;28;20420;-50
2022/05/07 09:00:57;;;;;;;3.40;2.20;;;;;;;-140.79;100.00;63287.88;5047432;28;20090;-51
2022/05/07 09:03:24;;;;;;;3.63;1.90;;;;;;;-140.79;100.00;63287.88;5064002;28;20107;-51
2022/05/07 09:05:49;;;;;;;4.13;2.30;;;;;;;-140.79;100.00;63287.88;5064726;28;20131;-50
2022/05/07 09:08:15;;;;;;;4.45;2.47;;;;;;;-140.79;100.00;63287.88;5064783;28;20036;-51
2022/05/07 09:10:40;;;;;;;3.45;2.20;;;;;;;-140.79;100.00;63287.88;5064507;28;20035;-51
2022/05/07 09:13:10;;;;;;;3.97;2.40;;;;;;;-140.79;100.00;63287.88;5049326;28;20025;-51
2022/05/07 09:15:36;;;;;;;3.13;1.95;;;;;;;-140.79;100.00;63287.88;5045719;28;20041;-51
2022/05/07 09:18:12;;;;;;;4.63;2.17;;;;;;;-140.79;100.00;63287.88;5055730;28;20036;-51
2022/05/07 09:20:37;;;;;;;3.72;1.90;;;;;;;-140.79;100.00;63287.88;5065447;28;20016;-51
2022/05/07 09:23:03;;;;;;;2.60;2.10;;;;;;;-140.79;100.00;63287.88;5063325;28;20060;-50
2022/05/07 09:25:30;;;;;;;2.70;1.95;;;;;;;-140.79;100.00;63287.88;5046341;28;20052;-49
2022/05/07 09:27:56;;;;;;;3.10;2.28;;;;;;;-140.79;100.00;63287.88;5065283;28;20056;-50
2022/05/07 09:30:26;;;;;;;3.47;2.30;;;;;;;-140.79;100.00;63287.88;5064898;28;20533;-53
2022/05/07 09:32:53;;;;;;;2.92;2.10;;;;;;;-140.79;100.00;63287.88;5066266;28;20052;-50
2022/05/07 09:38:10;;;;;;;2.65;1.90;;;;;;;-140.79;100.00;63287.88;5068091;28;20102;-50
2022/05/07 09:40:39;;;;;;;4.15;2.95;;;;;;;-140.79;100.00;63287.88;5065583;28;20107;-49
2022/05/07 09:43:05;;;;;;;3.63;2.28;;;;;;;-140.79;100.00;63287.88;5064413;28;20035;-50
2022/05/07 09:45:31;;;;;;;3.13;1.90;;;;;;;-140.79;100.00;63287.88;5045773;28;20037;-50
2022/05/07 09:47:59;;;;;;;3.45;1.92;;;;;;;-140.79;100.00;63287.88;5058312;28;20054;-50
2022/05/07 09:58:34;;;;;;;3.42;1.90;;;;;;;-140.79;100.00;63287.88;5062245;28;20035;-48
2022/05/07 10:01:21;;;;;;;2.83;1.95;;;;;;;-140.79;100.00;63287.88;5045404;28;20020;-50
2022/05/07 10:04:09;;;;;;;3.45;2.00;;;;;;;-140.79;100.00;63287.88;5062612;28;20028;-50
2022/05/07 10:06:47;;;;;;;2.90;2.08;;;;;;;-140.79;100.00;63287.88;5028610;28;20032;-50
2022/05/07 10:09:33;;;;;;;3.35;1.92;;;;;;;-140.79;100.00;63287.88;5062785;28;20419;-51
2022/05/07 10:11:59;;;;;;;3.58;2.03;;;;;;;-140.79;100.00;63287.88;5049071;28;20063;-50
2022/05/07 10:14:30;;;;;;;3.22;2.10;;;;;;;-140.79;100.00;63287.88;5044573;28;20076;-51
2022/05/07 10:17:08;;;;;;;4.05;1.95;;;;;;;-140.79;100.00;63287.88;5062418;28;20043;-50
2022/05/07 10:19:42;;;;;;;3.13;1.88;;;;;;;-140.79;100.00;63287.88;5062982;28;20191;-50
2022/05/07 10:22:26;;;;;;;2.75;2.00;;;;;;;-140.79;100.00;63287.88;5063040;28;20052;-51
2022/05/07 10:25:20;;;;;;;3.13;1.90;;;;;;;-140.79;100.00;63287.88;5062567;28;20036;-51
2022/05/07 10:27:46;;;;;;;2.38;1.80;;;;;;;-140.79;100.00;63287.88;5048385;28;20064;-50
2022/05/07 10:30:15;;;;;;;2.90;1.80;;;;;;;-140.79;100.00;63287.88;5027753;28;20072;-50
2022/05/07 10:33:02;;;;;;;3.22;2.10;;;;;;;-140.79;100.00;63287.88;5062104;28;20028;-49
2022/05/07 10:35:42;;;;;;;3.08;1.90;;;;;;;-140.79;100.00;63287.88;5062300;28;20037;-50
2022/05/07 10:38:09;;;;;;;2.20;1.75;;;;;;;-140.79;100.00;63287.88;5061485;28;20031;-50
2022/05/07 10:40:34;;;;;;;3.67;2.20;;;;;;;-140.79;100.00;63287.88;5044191;28;20043;-50
2022/05/07 10:43:00;;;;;;;3.58;2.10;;;;;;;-140.79;100.00;63287.88;5061407;28;20447;-50
2022/05/07 10:45:27;;;;;;;3.15;2.17;;;;;;;-140.79;100.00;63287.88;5044145;28;20032;-51
2022/05/07 10:47:57;;;;;;;2.97;2.20;;;;;;;-140.79;100.00;63287.88;5060047;28;20071;-50
2022/05/07 10:50:22;;;;;;;2.70;1.80;;;;;;;-140.79;100.00;63287.88;5062384;28;20423;-51
2022/05/07 10:52:55;;;;;;;3.83;1.90;;;;;;;-140.79;100.00;63287.88;5044302;28;20025;-51
2022/05/07 10:55:26;;;;;;;3.08;2.03;;;;;;;-140.79;100.00;63287.88;5045165;28;20039;-50
2022/05/07 10:57:52;;;;;;;2.75;1.60;;;;;;;-140.79;100.00;63287.88;5063492;28;20423;-51
2022/05/07 11:00:21;;;;;;;3.22;2.00;;;;;;;-140.79;100.00;63287.88;5063118;28;20039;-51
2022/05/07 11:02:50;;;;;;;2.83;1.98;;;;;;;-140.79;100.00;63287.88;5062375;28;20561;-51
2022/05/07 11:05:16;;;;;;;3.47;2.08;;;;;;;-140.79;100.00;63287.88;5062684;28;20108;-49
2022/05/07 11:07:43;;;;;;;3.63;2.22;;;;;;;-140.79;100.00;63287.88;5063225;28;20024;-49
2022/05/07 11:10:11;;;;;;;2.25;1.60;;;;;;;-140.79;100.00;63287.88;5061605;28;20116;-51
2022/05/07 11:12:38;;;;;;;3.03;1.77;;;;;;;-140.79;100.00;63287.88;5045340;28;20032;-49
2022/05/07 11:15:05;;;;;;;3.25;2.03;;;;;;;-140.79;100.00;63287.88;5062636;28;20036;-50
2022/05/07 11:17:40;;;;;;;2.28;1.67;;;;;;;-140.79;100.00;63287.88;5060671;28;20029;-49
2022/05/07 11:20:06;;;;;;;3.03;2.00;;;;;;;-140.79;100.00;63287.88;5062874;28;20035;-51
2022/05/07 11:22:32;;;;;;;3.47;1.73;;;;;;;-140.79;100.00;63287.88;5062698;28;20025;-50
2022/05/07 11:25:01;;;;;;;2.80;1.63;;;;;;;-140.79;100.00;63287.88;5062412;28;20040;-51
2022/05/07 11:27:32;;;;;;;3.17;1.95;;;;;;;-140.79;100.00;63287.88;5061074;28;20118;-51
2022/05/07 11:30:00;;;;;;;2.65;1.88;;;;;;;-140.79;100.00;63287.88;5063249;28;20028;-50
2022/05/07 11:32:39;;;;;;;2.92;1.90;;;;;;;-140.79;100.00;63287.88;5062249;28;20093;-51
2022/05/07 11:35:05;;;;;;;2.47;1.80;;;;;;;-140.79;100.00;63287.88;5062243;28;20123;-50